Time;durP1;ratioP1;P1;durP2;ratioP2;P2;SDS_P1;SDS_P2;PMS_P1;PMS_P2;Temp;Humidity;BMP_temperature;BMP_pressure;BME280_temperature;BME280_humidity;BME280_pressure;Samples;Min_cycle;Max_cycle;Signal;HPM_P1;HPM_P2
2022/06/13 00:00:28;;;;;;;18.10;5.57;;;;;;;;;;5128163;27;20289;-75
2022/06/13 00:02:55;;;;;;;18.83;5.60;;;;;;;;;;5105932;28;20275;-75
2022/06/13 00:05:23;;;;;;;16.47;5.53;;;;;;;;;;5119353;27;20280;-75
2022/06/13 00:07:50;;;;;;;11.47;5.00;;;;;;;;;;5129183;27;20290;-75
2022/06/13 00:10:17;;;;;;;16.87;5.50;;;;;;;;;;5118389;27;20577;-75
2022/06/13 00:12:46;;;;;;;15.77;5.60;;;;;;;;;;5130139;27;20226;-75
2022/06/13 00:15:15;;;;;;;14.80;5.30;;;;;;;;;;5124023;27;20307;-75
2022/06/13 00:17:43;;;;;;;14.37;5.23;;;;;;;;;;5120483;28;20260;-75
2022/06/13 00:20:10;;;;;;;15.67;5.40;;;;;;;;;;5131881;27;20299;-75
2022/06/13 00:22:37;;;;;;;15.57;5.63;;;;;;;;;;5117960;27;20282;-75
2022/06/13 00:25:05;;;;;;;14.50;5.40;;;;;;;;;;5134796;27;20281;-75
2022/06/13 00:27:32;;;;;;;16.20;5.20;;;;;;;;;;5131604;27;20285;-75
2022/06/13 00:30:01;;;;;;;14.73;6.13;;;;;;;;;;5135389;27;20670;-75
2022/06/13 00:32:28;;;;;;;17.07;5.40;;;;;;;;;;5133038;27;20291;-74
2022/06/13 00:34:55;;;;;;;12.43;5.53;;;;;;;;;;5133864;27;20310;-75
2022/06/13 00:37:22;;;;;;;15.07;5.40;;;;;;;;;;5122433;27;20302;-75
2022/06/13 00:39:50;;;;;;;15.33;5.50;;;;;;;;;;5115278;28;20279;-75
2022/06/13 00:42:18;;;;;;;13.83;5.47;;;;;;;;;;5114994;28;20286;-75
2022/06/13 00:45:00;;;;;;;16.67;5.67;;;;;;;;;;5106007;28;20311;-75
2022/06/13 00:47:29;;;;;;;18.30;6.23;;;;;;;;;;5094618;28;20316;-75
2022/06/13 00:49:56;;;;;;;12.90;5.33;;;;;;;;;;5097960;28;20276;-75
2022/06/13 00:52:28;;;;;;;12.93;4.90;;;;;;;;;;5114492;28;20722;-75
2022/06/13 00:54:56;;;;;;;14.47;5.87;;;;;;;;;;5114799;28;20320;-75
2022/06/13 00:57:25;;;;;;;17.23;5.77;;;;;;;;;;5114736;28;20205;-75
2022/06/13 00:59:54;;;;;;;17.10;5.90;;;;;;;;;;5114503;28;20200;-75
2022/06/13 01:02:22;;;;;;;15.33;5.47;;;;;;;;;;5114627;28;20629;-75
2022/06/13 01:04:51;;;;;;;15.43;5.63;;;;;;;;;;5128588;27;20191;-75
2022/06/13 01:07:20;;;;;;;22.07;6.20;;;;;;;;;;5127563;27;20301;-75
2022/06/13 01:12:32;;;;;;;15.53;5.70;;;;;;;;;;5125857;27;20577;-75
2022/06/13 01:15:05;;;;;;;16.90;6.57;;;;;;;;;;5134873;27;20307;-75
2022/06/13 01:17:37;;;;;;;14.57;5.97;;;;;;;;;;5133882;27;20265;-75
2022/06/13 01:20:13;;;;;;;16.70;6.63;;;;;;;;;;5119884;27;20201;-75
2022/06/13 01:22:58;;;;;;;21.03;6.60;;;;;;;;;;5112978;28;20620;-75
2022/06/13 01:25:36;;;;;;;20.87;6.47;;;;;;;;;;5049771;28;20291;-75
2022/06/13 01:28:18;;;;;;;16.57;6.83;;;;;;;;;;5049760;28;20196;-75
2022/06/13 01:30:58;;;;;;;15.63;6.27;;;;;;;;;;5048852;28;20235;-75
2022/06/13 01:33:29;;;;;;;16.73;7.17;;;;;;;;;;5048958;28;20290;-75
2022/06/13 01:36:01;;;;;;;16.93;6.83;;;;;;;;;;5046353;28;20247;-76
2022/06/13 01:38:39;;;;;;;19.97;6.63;;;;;;;;;;5069423;28;20274;-75
2022/06/13 01:41:11;;;;;;;19.10;6.57;;;;;;;;;;5067457;28;20299;-75
2022/06/13 01:43:51;;;;;;;16.77;6.10;;;;;;;;;;5029267;28;20291;-75
2022/06/13 01:46:32;;;;;;;21.07;7.03;;;;;;;;;;5029680;28;20312;-74
2022/06/13 01:49:01;;;;;;;16.50;6.67;;;;;;;;;;5029011;28;20793;-74
2022/06/13 01:51:30;;;;;;;18.47;6.90;;;;;;;;;;5046099;28;20279;-74
2022/06/13 01:53:59;;;;;;;17.20;6.70;;;;;;;;;;5043720;28;20296;-74
2022/06/13 01:56:29;;;;;;;17.20;6.40;;;;;;;;;;5035674;28;20222;-74
2022/06/13 01:58:59;;;;;;;22.10;6.73;;;;;;;;;;5060592;28;20238;-74
2022/06/13 02:01:34;;;;;;;18.00;6.77;;;;;;;;;;5068986;28;20310;-74
2022/06/13 02:04:06;;;;;;;17.67;6.57;;;;;;;;;;5132859;27;20214;-74
2022/06/13 02:06:34;;;;;;;18.87;6.30;;;;;;;;;;5132726;27;20232;-75
2022/06/13 02:09:04;;;;;;;16.70;6.17;;;;;;;;;;5132409;27;20201;-74
2022/06/13 02:11:33;;;;;;;19.97;6.73;;;;;;;;;;5126293;27;20379;-74
2022/06/13 02:14:03;;;;;;;17.83;6.27;;;;;;;;;;5111674;28;20596;-74
2022/06/13 02:16:33;;;;;;;17.07;5.97;;;;;;;;;;5063003;28;1186269;-74
2022/06/13 02:19:04;;;;;;;20.00;7.03;;;;;;;;;;5092610;28;20229;-74
2022/06/13 02:21:36;;;;;;;16.93;6.10;;;;;;;;;;5092751;28;20230;-74
2022/06/13 02:24:04;;;;;;;20.10;5.93;;;;;;;;;;5119951;27;20240;-75
2022/06/13 02:26:34;;;;;;;15.77;6.27;;;;;;;;;;5126631;27;20236;-75
2022/06/13 02:29:02;;;;;;;18.93;6.30;;;;;;;;;;5112458;28;20305;-74
2022/06/13 02:31:34;;;;;;;18.17;6.77;;;;;;;;;;5111523;28;20281;-75
2022/06/13 02:34:03;;;;;;;18.50;6.50;;;;;;;;;;5116848;27;20228;-74
2022/06/13 02:36:36;;;;;;;18.83;6.53;;;;;;;;;;5124352;27;20784;-75
2022/06/13 02:39:06;;;;;;;16.67;6.20;;;;;;;;;;5123037;27;20239;-74
2022/06/13 02:41:37;;;;;;;15.37;6.17;;;;;;;;;;5123905;27;20280;-75
2022/06/13 02:44:07;;;;;;;15.97;6.80;;;;;;;;;;5127986;27;20597;-74
2022/06/13 02:46:37;;;;;;;17.43;6.90;;;;;;;;;;5111353;28;20294;-74
2022/06/13 02:49:06;;;;;;;23.50;6.83;;;;;;;;;;5112634;28;20577;-74
2022/06/13 02:51:37;;;;;;;16.73;6.70;;;;;;;;;;5109270;28;20357;-74
2022/06/13 02:54:07;;;;;;;15.10;6.37;;;;;;;;;;5098288;27;20288;-74
2022/06/13 02:57:23;;;;;;;16.10;6.13;;;;;;;;;;5131816;27;20224;-74
2022/06/13 02:59:29;;;;;;;16.70;6.43;;;;;;;;;;5132551;27;20197;-75
2022/06/13 03:02:02;;;;;;;16.57;6.80;;;;;;;;;;5117117;27;20289;-74
2022/06/13 03:04:33;;;;;;;17.23;6.77;;;;;;;;;;5111904;28;20398;-75
2022/06/13 03:07:06;;;;;;;16.53;6.40;;;;;;;;;;5097612;28;20290;-75
2022/06/13 03:09:34;;;;;;;18.40;6.83;;;;;;;;;;5094112;28;20296;-75
2022/06/13 03:12:05;;;;;;;21.23;7.13;;;;;;;;;;5111218;28;20212;-75
2022/06/13 03:14:45;;;;;;;16.93;6.93;;;;;;;;;;5111426;28;20201;-74
2022/06/13 03:17:37;;;;;;;22.57;6.80;;;;;;;;;;5111090;28;20318;-74
2022/06/13 03:20:11;;;;;;;15.00;6.43;;;;;;;;;;5110924;28;20227;-75
2022/06/13 03:22:42;;;;;;;19.50;7.43;;;;;;;;;;5111374;28;20212;-75
2022/06/13 03:25:11;;;;;;;16.63;6.10;;;;;;;;;;5111093;28;20198;-75
2022/06/13 03:27:41;;;;;;;16.57;6.37;;;;;;;;;;5110452;28;20691;-75
2022/06/13 03:30:10;;;;;;;12.87;6.13;;;;;;;;;;5125645;27;20289;-75
2022/06/13 03:32:40;;;;;;;14.03;5.67;;;;;;;;;;5123233;27;20288;-75
2022/06/13 03:35:12;;;;;;;10.83;5.20;;;;;;;;;;5127222;27;20252;-75
2022/06/13 03:37:42;;;;;;;11.77;5.10;;;;;;;;;;5116908;27;20202;-75
2022/06/13 03:40:10;;;;;;;12.90;5.40;;;;;;;;;;5110674;28;20285;-74
2022/06/13 03:42:40;;;;;;;13.23;5.63;;;;;;;;;;5110581;28;20291;-75
2022/06/13 03:45:10;;;;;;;13.13;5.63;;;;;;;;;;5111388;28;20212;-74
2022/06/13 03:47:39;;;;;;;17.33;6.90;;;;;;;;;;5091014;28;20206;-74
2022/06/13 03:50:11;;;;;;;19.80;6.87;;;;;;;;;;5119670;27;20516;-75
2022/06/13 03:52:41;;;;;;;16.23;6.20;;;;;;;;;;5122363;27;20213;-75
2022/06/13 03:55:11;;;;;;;13.90;6.63;;;;;;;;;;5117449;27;20271;-75
2022/06/13 03:57:40;;;;;;;19.20;6.57;;;;;;;;;;5131518;27;20250;-75
2022/06/13 04:00:10;;;;;;;18.77;6.40;;;;;;;;;;5131550;27;20292;-75
2022/06/13 04:02:38;;;;;;;17.70;6.40;;;;;;;;;;5131439;27;20208;-75
2022/06/13 04:05:06;;;;;;;17.37;6.77;;;;;;;;;;5119022;27;20225;-75
2022/06/13 04:07:37;;;;;;;15.77;6.50;;;;;;;;;;5111259;28;20241;-75
2022/06/13 04:10:06;;;;;;;18.63;6.00;;;;;;;;;;5120452;28;20197;-75
2022/06/13 04:12:47;;;;;;;18.77;6.77;;;;;;;;;;5128908;27;20283;-75
2022/06/13 04:15:21;;;;;;;16.87;6.53;;;;;;;;;;5128923;28;20299;-75
2022/06/13 04:17:52;;;;;;;18.87;6.70;;;;;;;;;;5131002;27;20266;-75
2022/06/13 04:20:24;;;;;;;21.03;6.70;;;;;;;;;;5131218;27;20215;-74
2022/06/13 04:22:55;;;;;;;20.07;6.87;;;;;;;;;;5130493;27;20747;-74
2022/06/13 04:25:25;;;;;;;20.03;6.60;;;;;;;;;;5130926;27;20566;-74
2022/06/13 04:27:55;;;;;;;21.53;6.93;;;;;;;;;;5116770;27;20295;-75
2022/06/13 04:30:24;;;;;;;19.13;6.37;;;;;;;;;;5129308;27;20560;-74
2022/06/13 04:32:54;;;;;;;16.07;6.57;;;;;;;;;;5127456;27;20775;-74
2022/06/13 04:35:22;;;;;;;16.93;6.50;;;;;;;;;;5130698;27;20287;-74
2022/06/13 04:37:50;;;;;;;13.67;6.40;;;;;;;;;;5127937;27;20304;-74
2022/06/13 04:40:21;;;;;;;13.70;6.20;;;;;;;;;;5110453;28;20189;-75
2022/06/13 04:42:49;;;;;;;18.77;6.53;;;;;;;;;;5110414;28;20229;-74
2022/06/13 04:45:20;;;;;;;15.67;6.57;;;;;;;;;;5123098;28;20241;-75
2022/06/13 04:47:47;;;;;;;16.03;6.20;;;;;;;;;;5130694;27;20289;-75
2022/06/13 04:50:16;;;;;;;20.03;6.47;;;;;;;;;;5130687;27;20344;-75
2022/06/13 04:52:44;;;;;;;14.57;6.17;;;;;;;;;;5119558;27;20216;-74
2022/06/13 04:55:14;;;;;;;16.03;6.00;;;;;;;;;;5121280;28;20292;-74
2022/06/13 04:57:42;;;;;;;17.53;6.27;;;;;;;;;;5129536;27;20287;-75
2022/06/13 05:00:11;;;;;;;14.07;5.53;;;;;;;;;;5114968;27;20664;-75
2022/06/13 05:02:41;;;;;;;19.90;6.23;;;;;;;;;;5116715;28;20240;-75
2022/06/13 05:05:21;;;;;;;17.90;6.07;;;;;;;;;;5109481;28;20199;-74
2022/06/13 05:07:48;;;;;;;18.60;5.70;;;;;;;;;;5108858;28;20285;-75
2022/06/13 05:10:18;;;;;;;13.03;5.20;;;;;;;;;;5111893;28;20194;-75
2022/06/13 05:12:47;;;;;;;16.63;6.30;;;;;;;;;;5113962;28;20289;-75
2022/06/13 05:15:17;;;;;;;12.57;5.20;;;;;;;;;;5115848;27;20288;-75
2022/06/13 05:18:07;;;;;;;7.50;4.70;;;;;;;;;;5134099;27;20338;-74
2022/06/13 05:20:37;;;;;;;13.53;5.40;;;;;;;;;;5131854;27;20202;-75
2022/06/13 05:23:22;;;;;;;11.57;5.13;;;;;;;;;;5134634;27;20292;-75
2022/06/13 05:25:50;;;;;;;8.27;5.00;;;;;;;;;;5134740;27;20280;-75
2022/06/13 05:28:19;;;;;;;9.67;5.50;;;;;;;;;;5130936;27;20201;-76
2022/06/13 05:30:48;;;;;;;11.60;5.57;;;;;;;;;;5130690;27;20199;-75
2022/06/13 05:33:16;;;;;;;11.80;5.20;;;;;;;;;;5115926;27;20573;-76
2022/06/13 05:35:45;;;;;;;10.40;4.43;;;;;;;;;;5110109;27;20781;-76
2022/06/13 05:38:15;;;;;;;9.83;4.97;;;;;;;;;;5123929;27;20193;-75
2022/06/13 05:40:42;;;;;;;13.23;4.57;;;;;;;;;;5106024;27;20657;-74
2022/06/13 05:43:10;;;;;;;12.27;4.73;;;;;;;;;;5102300;28;20256;-75
2022/06/13 05:45:39;;;;;;;9.83;4.63;;;;;;;;;;5126493;27;21128;-75
2022/06/13 05:48:07;;;;;;;10.37;4.10;;;;;;;;;;5105271;27;20293;-75
2022/06/13 05:50:35;;;;;;;11.90;4.10;;;;;;;;;;5123989;27;20619;-77
2022/06/13 05:53:02;;;;;;;9.90;4.07;;;;;;;;;;5119146;27;20317;-77
2022/06/13 05:55:29;;;;;;;11.53;3.77;;;;;;;;;;5116047;27;20233;-76
2022/06/13 05:57:56;;;;;;;11.00;4.00;;;;;;;;;;5112749;28;20291;-77
2022/06/13 06:00:26;;;;;;;9.60;4.13;;;;;;;;;;5112269;28;20236;-77
2022/06/13 06:02:54;;;;;;;9.67;3.87;;;;;;;;;;5110557;27;20230;-77
2022/06/13 06:05:21;;;;;;;11.93;3.87;;;;;;;;;;5128827;27;20280;-77
2022/06/13 06:07:49;;;;;;;11.10;3.63;;;;;;;;;;5132543;27;20228;-77
2022/06/13 06:10:18;;;;;;;15.13;4.30;;;;;;;;;;5128635;27;20321;-77
2022/06/13 06:12:45;;;;;;;9.20;3.50;;;;;;;;;;5121790;27;20233;-77
2022/06/13 06:15:12;;;;;;;12.82;3.75;;;;;;;;;;5115604;27;20197;-77
2022/06/13 06:17:40;;;;;;;12.68;3.60;;;;;;;;;;5121014;27;20229;-77
2022/06/13 06:20:09;;;;;;;10.05;3.55;;;;;;;;;;5123559;27;20283;-77
2022/06/13 06:22:36;;;;;;;10.90;4.13;;;;;;;;;;5116638;27;20280;-77
2022/06/13 06:25:04;;;;;;;9.95;3.42;;;;;;;;;;5120340;27;20200;-77
2022/06/13 06:27:31;;;;;;;9.77;3.60;;;;;;;;;;5112546;28;20222;-77
2022/06/13 06:29:58;;;;;;;7.95;3.20;;;;;;;;;;5114750;27;20297;-77
2022/06/13 06:32:25;;;;;;;9.85;3.90;;;;;;;;;;5113624;27;20222;-77
2022/06/13 06:34:53;;;;;;;7.85;3.13;;;;;;;;;;5111952;28;20294;-77
2022/06/13 06:37:21;;;;;;;6.85;3.00;;;;;;;;;;5112126;28;20308;-78
2022/06/13 06:39:48;;;;;;;6.18;3.30;;;;;;;;;;5112451;28;20927;-77
2022/06/13 06:42:15;;;;;;;10.98;3.42;;;;;;;;;;5112770;28;20288;-77
2022/06/13 06:44:43;;;;;;;9.15;3.20;;;;;;;;;;5126439;27;20308;-77
2022/06/13 06:47:10;;;;;;;7.57;3.08;;;;;;;;;;5130929;27;20309;-77
2022/06/13 06:49:38;;;;;;;8.95;3.13;;;;;;;;;;5111835;28;20280;-77
2022/06/13 06:52:06;;;;;;;11.30;3.20;;;;;;;;;;5129021;27;20201;-77
2022/06/13 07:00:06;;;;;;;7.25;3.13;;;;;;;;;;5124388;27;20991;-77
2022/06/13 07:02:33;;;;;;;9.48;3.42;;;;;;;;;;5105046;28;20289;-78
2022/06/13 07:05:02;;;;;;;8.27;3.08;;;;;;;;;;5091985;28;20285;-77
2022/06/13 07:07:30;;;;;;;10.00;3.30;;;;;;;;;;5091954;28;20290;-78
2022/06/13 07:09:58;;;;;;;9.00;3.25;;;;;;;;;;5092236;28;20285;-78
2022/06/13 07:12:26;;;;;;;12.07;3.60;;;;;;;;;;5125334;27;20252;-78
2022/06/13 07:14:53;;;;;;;7.43;2.92;;;;;;;;;;5132534;27;20228;-78
2022/06/13 07:17:21;;;;;;;9.60;3.15;;;;;;;;;;5131601;27;20308;-78
2022/06/13 07:19:48;;;;;;;8.32;3.15;;;;;;;;;;5132645;27;20193;-78
2022/06/13 07:22:17;;;;;;;8.23;3.20;;;;;;;;;;5132857;27;20570;-78
2022/06/13 07:24:45;;;;;;;7.28;2.85;;;;;;;;;;5132809;27;20204;-78
2022/06/13 07:27:14;;;;;;;7.40;2.60;;;;;;;;;;5131573;27;20284;-78
2022/06/13 07:29:41;;;;;;;9.18;3.00;;;;;;;;;;5130944;27;20288;-77
2022/06/13 07:32:10;;;;;;;8.38;2.50;;;;;;;;;;5122728;27;20229;-78
2022/06/13 07:34:39;;;;;;;6.13;2.47;;;;;;;;;;5131900;27;20367;-77
2022/06/13 07:37:08;;;;;;;6.65;2.58;;;;;;;;;;5132252;27;20220;-77
2022/06/13 07:39:35;;;;;;;8.75;3.03;;;;;;;;;;5131909;27;20228;-78
2022/06/13 07:42:03;;;;;;;6.97;2.70;;;;;;;;;;5132192;27;20197;-78
2022/06/13 07:44:33;;;;;;;7.32;2.58;;;;;;;;;;5125462;27;20324;-78
2022/06/13 07:47:01;;;;;;;5.32;2.38;;;;;;;;;;5110808;28;20226;-78
2022/06/13 07:49:28;;;;;;;5.45;2.38;;;;;;;;;;5116516;27;20232;-78
2022/06/13 07:51:56;;;;;;;6.15;2.38;;;;;;;;;;5131160;27;20622;-78
2022/06/13 07:54:23;;;;;;;7.47;2.70;;;;;;;;;;5131330;27;20197;-78
2022/06/13 07:56:50;;;;;;;8.57;2.63;;;;;;;;;;5131258;27;20221;-78
2022/06/13 07:59:19;;;;;;;8.32;2.97;;;;;;;;;;5131603;27;20622;-78
2022/06/13 08:01:48;;;;;;;8.48;2.63;;;;;;;;;;5131357;27;20225;-77
2022/06/13 08:04:15;;;;;;;9.52;2.67;;;;;;;;;;5115053;27;20205;-78
2022/06/13 08:06:42;;;;;;;10.82;2.55;;;;;;;;;;5124109;27;20277;-78
2022/06/13 08:09:10;;;;;;;6.45;2.30;;;;;;;;;;5131501;27;20193;-78
2022/06/13 08:11:38;;;;;;;6.55;2.40;;;;;;;;;;5131326;27;20289;-78
2022/06/13 08:14:06;;;;;;;7.68;2.60;;;;;;;;;;5131562;27;20229;-78
2022/06/13 08:16:34;;;;;;;6.28;2.50;;;;;;;;;;5130736;27;20235;-78
2022/06/13 08:19:04;;;;;;;7.68;2.00;;;;;;;;;;5124452;27;20221;-78
2022/06/13 08:21:31;;;;;;;7.63;2.40;;;;;;;;;;5110355;28;20197;-78
2022/06/13 08:23:58;;;;;;;5.90;1.80;;;;;;;;;;5124099;28;20381;-78
2022/06/13 08:26:27;;;;;;;5.57;2.20;;;;;;;;;;5127669;27;20280;-77
2022/06/13 08:28:54;;;;;;;6.47;2.08;;;;;;;;;;5123503;28;20338;-78
2022/06/13 08:31:23;;;;;;;6.93;2.20;;;;;;;;;;5130312;27;20208;-78
2022/06/13 08:33:51;;;;;;;4.78;2.10;;;;;;;;;;5124060;27;20292;-78
2022/06/13 08:36:21;;;;;;;7.45;2.63;;;;;;;;;;5121933;27;20287;-78
2022/06/13 08:38:48;;;;;;;6.65;2.40;;;;;;;;;;5131016;27;20193;-78
2022/06/13 08:41:20;;;;;;;6.80;2.45;;;;;;;;;;5128873;27;20276;-78
2022/06/13 08:44:05;;;;;;;4.82;1.95;;;;;;;;;;5123904;27;20277;-78
2022/06/13 08:46:37;;;;;;;6.53;2.30;;;;;;;;;;5113649;28;20229;-78
2022/06/13 08:49:07;;;;;;;4.43;2.15;;;;;;;;;;5103378;28;20294;-78
2022/06/13 08:51:39;;;;;;;6.68;2.25;;;;;;;;;;5129491;27;20279;-78
2022/06/13 08:54:09;;;;;;;6.00;2.28;;;;;;;;;;5134597;27;20193;-78
2022/06/13 08:56:37;;;;;;;5.63;2.03;;;;;;;;;;5134929;27;20232;-77
2022/06/13 09:02:08;;;;;;;4.53;1.90;;;;;;;;;;5148713;27;20558;-77
2022/06/13 09:04:37;;;;;;;6.43;2.20;;;;;;;;;;5148427;27;20224;-76
2022/06/13 09:07:08;;;;;;;4.60;1.90;;;;;;;;;;5148725;27;20882;-76
2022/06/13 09:09:38;;;;;;;6.75;2.20;;;;;;;;;;5148628;27;20249;-77
2022/06/13 09:12:07;;;;;;;7.38;2.67;;;;;;;;;;5148867;27;20299;-76
2022/06/13 09:14:36;;;;;;;6.55;2.10;;;;;;;;;;5148018;27;20569;-76
2022/06/13 09:17:07;;;;;;;4.95;2.10;;;;;;;;;;5148879;27;20283;-76
2022/06/13 09:19:38;;;;;;;6.13;2.33;;;;;;;;;;5148921;27;20291;-76
2022/06/13 09:22:08;;;;;;;4.15;1.85;;;;;;;;;;5148488;27;20645;-76
2022/06/13 09:24:39;;;;;;;6.15;1.80;;;;;;;;;;5148796;27;20284;-76
2022/06/13 09:27:09;;;;;;;5.50;2.20;;;;;;;;;;5148195;27;20633;-76
2022/06/13 09:29:41;;;;;;;4.25;1.90;;;;;;;;;;5148506;27;20287;-76
2022/06/13 09:32:11;;;;;;;5.60;2.25;;;;;;;;;;5148182;27;20287;-76
2022/06/13 09:34:41;;;;;;;5.13;2.10;;;;;;;;;;5148642;27;20279;-76
2022/06/13 09:37:10;;;;;;;4.78;1.70;;;;;;;;;;5148141;27;20253;-76
2022/06/13 09:39:37;;;;;;;4.88;1.90;;;;;;;;;;5148552;27;20224;-76
2022/06/13 09:42:14;;;;;;;7.40;2.15;;;;;;;;;;5147122;27;20760;-76
2022/06/13 09:44:59;;;;;;;4.72;2.20;;;;;;;;;;5132802;27;20230;-76
2022/06/13 09:47:30;;;;;;;3.38;1.45;;;;;;;;;;5108676;28;20194;-76
2022/06/13 09:50:04;;;;;;;5.15;1.88;;;;;;;;;;5141602;27;20279;-76
2022/06/13 09:52:37;;;;;;;7.05;1.98;;;;;;;;;;5140316;27;20201;-76
2022/06/13 09:55:09;;;;;;;4.40;1.88;;;;;;;;;;5131617;27;20196;-76
2022/06/13 09:57:41;;;;;;;7.05;2.35;;;;;;;;;;5134345;27;20261;-76
2022/06/13 10:00:10;;;;;;;7.68;2.00;;;;;;;;;;5132592;27;20311;-76
2022/06/13 10:02:47;;;;;;;5.95;1.90;;;;;;;;;;5127295;28;20229;-76
2022/06/13 10:05:19;;;;;;;6.40;1.88;;;;;;;;;;5126061;27;20232;-76
2022/06/13 10:07:50;;;;;;;5.72;2.05;;;;;;;;;;5127058;28;20272;-77
2022/06/13 10:10:26;;;;;;;5.78;2.05;;;;;;;;;;5127399;27;20217;-76
2022/06/13 10:12:56;;;;;;;5.43;1.90;;;;;;;;;;5099627;28;20252;-77
2022/06/13 10:15:32;;;;;;;6.88;2.08;;;;;;;;;;5093545;28;20234;-77
2022/06/13 10:18:04;;;;;;;4.47;1.92;;;;;;;;;;5092920;28;20740;-77
2022/06/13 10:20:35;;;;;;;6.22;1.90;;;;;;;;;;5092616;28;20626;-77
2022/06/13 10:23:06;;;;;;;7.10;2.03;;;;;;;;;;5109444;28;20289;-78
2022/06/13 10:25:38;;;;;;;4.30;2.00;;;;;;;;;;5121717;27;20631;-77
2022/06/13 10:28:12;;;;;;;5.32;1.92;;;;;;;;;;5134184;27;20615;-78
2022/06/13 10:30:43;;;;;;;5.97;2.08;;;;;;;;;;5112692;27;20296;-77
2022/06/13 10:33:20;;;;;;;6.05;1.92;;;;;;;;;;5113931;27;20197;-77
2022/06/13 10:35:50;;;;;;;4.82;2.08;;;;;;;;;;5115379;27;20201;-77
2022/06/13 10:38:23;;;;;;;4.13;2.35;;;;;;;;;;5106131;28;20226;-78
2022/06/13 10:40:51;;;;;;;8.45;2.42;;;;;;;;;;5121659;27;20296;-77
2022/06/13 10:43:18;;;;;;;4.65;1.95;;;;;;;;;;5101885;27;20281;-77
2022/06/13 10:45:46;;;;;;;5.97;2.30;;;;;;;;;;5107470;27;20305;-78
2022/06/13 10:48:17;;;;;;;4.63;2.03;;;;;;;;;;5120846;27;20202;-77
2022/06/13 10:50:48;;;;;;;7.33;2.10;;;;;;;;;;4754147;27;10000571;-77
2022/06/13 10:53:17;;;;;;;5.57;2.13;;;;;;;;;;5091618;28;20444;-78
2022/06/13 10:55:45;;;;;;;6.43;2.20;;;;;;;;;;5110317;27;20224;-78
2022/06/13 10:58:16;;;;;;;4.70;2.17;;;;;;;;;;5111588;28;20641;-78
2022/06/13 11:01:02;;;;;;;4.60;1.95;;;;;;;;;;5115480;27;20861;-78
2022/06/13 11:03:30;;;;;;;6.03;2.28;;;;;;;;;;5104573;27;20195;-78
2022/06/13 11:05:59;;;;;;;7.13;2.10;;;;;;;;;;5090291;28;20664;-78
2022/06/13 11:08:27;;;;;;;5.38;1.90;;;;;;;;;;5090571;28;20720;-78
2022/06/13 11:10:55;;;;;;;6.97;2.20;;;;;;;;;;5109323;27;20709;-77
2022/06/13 11:13:27;;;;;;;6.65;2.03;;;;;;;;;;5110893;28;20240;-77
2022/06/13 11:24:16;;;;;;;9.30;2.33;;;;;;;;;;5103400;28;20250;-78
2022/06/13 11:29:26;;;;;;;5.53;2.10;;;;;;;;;;5021453;28;20601;-78
2022/06/13 11:31:54;;;;;;;4.10;2.17;;;;;;;;;;5013862;28;20986;-78
2022/06/13 11:34:26;;;;;;;5.65;2.33;;;;;;;;;;5016826;28;20287;-77
2022/06/13 11:37:00;;;;;;;6.05;1.92;;;;;;;;;;5031330;28;20291;-77
2022/06/13 11:39:32;;;;;;;4.93;2.28;;;;;;;;;;5021324;28;20258;-78
2022/06/13 11:42:00;;;;;;;4.68;2.20;;;;;;;;;;5018324;28;20248;-78
2022/06/13 11:44:27;;;;;;;6.07;2.40;;;;;;;;;;5021668;28;20260;-78
2022/06/13 11:46:59;;;;;;;4.78;2.10;;;;;;;;;;5028559;28;20236;-78
2022/06/13 11:49:38;;;;;;;4.80;2.38;;;;;;;;;;5028361;28;20200;-77
2022/06/13 11:52:08;;;;;;;5.10;2.25;;;;;;;;;;5013377;28;20682;-78
2022/06/13 11:54:37;;;;;;;6.90;2.40;;;;;;;;;;5023737;28;20292;-77
2022/06/13 11:57:37;;;;;;;6.85;2.75;;;;;;;;;;5028153;28;20240;-77
2022/06/13 12:00:06;;;;;;;4.90;2.20;;;;;;;;;;4983710;28;20765;-77
2022/06/13 12:02:47;;;;;;;3.88;2.03;;;;;;;;;;4977873;28;20306;-78
2022/06/13 12:05:19;;;;;;;7.07;2.50;;;;;;;;;;4973600;28;20213;-77
2022/06/13 12:07:51;;;;;;;7.10;2.42;;;;;;;;;;5074597;28;20199;-78
2022/06/13 12:10:20;;;;;;;6.82;2.40;;;;;;;;;;5076669;28;20223;-77
2022/06/13 12:12:48;;;;;;;4.25;1.90;;;;;;;;;;5075320;28;20662;-77
2022/06/13 12:15:16;;;;;;;6.32;2.30;;;;;;;;;;5077219;28;20199;-78
2022/06/13 12:17:45;;;;;;;9.43;2.35;;;;;;;;;;5071463;28;20673;-77
2022/06/13 12:20:15;;;;;;;6.35;2.30;;;;;;;;;;5088200;28;20298;-77
2022/06/13 12:22:46;;;;;;;9.77;2.72;;;;;;;;;;5068425;28;20281;-77
2022/06/13 12:25:15;;;;;;;4.78;2.15;;;;;;;;;;5068405;28;20234;-78
2022/06/13 12:27:50;;;;;;;5.25;2.15;;;;;;;;;;5067757;28;20307;-78
2022/06/13 12:30:20;;;;;;;3.85;1.98;;;;;;;;;;5072587;28;20193;-78
2022/06/13 12:32:51;;;;;;;5.13;2.28;;;;;;;;;;5091099;28;20285;-77
2022/06/13 12:35:34;;;;;;;4.10;1.88;;;;;;;;;;5091563;28;20285;-77
2022/06/13 12:38:05;;;;;;;11.80;3.03;;;;;;;;;;5091130;28;20294;-78
2022/06/13 12:40:40;;;;;;;4.90;2.35;;;;;;;;;;5113612;27;20747;-77
2022/06/13 12:43:26;;;;;;;5.63;2.28;;;;;;;;;;5098324;28;20312;-77
2022/06/13 12:46:11;;;;;;;6.97;2.13;;;;;;;;;;5106367;28;20325;-77
2022/06/13 12:48:45;;;;;;;6.55;2.20;;;;;;;;;;5109288;27;20720;-77
2022/06/13 12:51:17;;;;;;;7.18;2.05;;;;;;;;;;5094262;28;20193;-77
2022/06/13 12:53:53;;;;;;;7.20;2.45;;;;;;;;;;5110681;28;20241;-78
2022/06/13 12:56:25;;;;;;;7.82;2.45;;;;;;;;;;5110953;28;20278;-77
2022/06/13 12:59:08;;;;;;;5.93;2.50;;;;;;;;;;5125652;27;20235;-77
2022/06/13 13:01:38;;;;;;;6.82;2.60;;;;;;;;;;5103075;28;20309;-78
2022/06/13 13:04:26;;;;;;;6.43;2.50;;;;;;;;;;5115439;28;20285;-77
2022/06/13 13:06:56;;;;;;;4.47;2.22;;;;;;;;;;5092534;28;20229;-77
2022/06/13 13:09:29;;;;;;;6.43;2.20;;;;;;;;;;5108506;28;20277;-77
2022/06/13 13:12:09;;;;;;;5.35;2.20;;;;;;;;;;5110756;28;20201;-77
2022/06/13 13:14:43;;;;;;;7.38;2.33;;;;;;;;;;5110760;28;20232;-77
2022/06/13 13:17:16;;;;;;;9.50;2.45;;;;;;;;;;5106815;28;20226;-77
2022/06/13 13:19:48;;;;;;;5.28;2.35;;;;;;;;;;5110704;28;20244;-77
2022/06/13 13:22:17;;;;;;;5.55;2.28;;;;;;;;;;5111100;28;20249;-77
2022/06/13 13:24:50;;;;;;;7.45;2.40;;;;;;;;;;5110581;28;20689;-77
2022/06/13 13:27:19;;;;;;;7.60;2.33;;;;;;;;;;5090924;28;20293;-77
2022/06/13 13:29:50;;;;;;;4.72;1.95;;;;;;;;;;5090196;28;20293;-77
2022/06/13 13:32:22;;;;;;;8.02;2.42;;;;;;;;;;5091371;28;20617;-77
2022/06/13 13:34:55;;;;;;;5.25;2.38;;;;;;;;;;5110455;28;20280;-78
2022/06/13 13:37:26;;;;;;;3.53;2.15;;;;;;;;;;5107786;28;20297;-77
2022/06/13 13:39:59;;;;;;;5.80;2.10;;;;;;;;;;5096931;28;20202;-77
2022/06/13 13:42:31;;;;;;;3.83;2.15;;;;;;;;;;5110175;28;20312;-77
2022/06/13 13:45:02;;;;;;;6.68;2.10;;;;;;;;;;5110633;28;20302;-77
2022/06/13 13:47:34;;;;;;;5.40;2.40;;;;;;;;;;5091956;28;20285;-77
2022/06/13 13:50:03;;;;;;;8.02;2.50;;;;;;;;;;5094086;28;20252;-77
2022/06/13 13:52:32;;;;;;;5.93;2.30;;;;;;;;;;5094281;28;20304;-77
2022/06/13 13:55:02;;;;;;;4.68;2.15;;;;;;;;;;5108688;28;20229;-77
2022/06/13 13:57:33;;;;;;;5.97;2.30;;;;;;;;;;5103524;28;20285;-77
2022/06/13 14:00:02;;;;;;;5.95;2.30;;;;;;;;;;5103602;27;20271;-77
2022/06/13 14:02:36;;;;;;;5.78;2.30;;;;;;;;;;5111768;27;20561;-77
2022/06/13 14:05:10;;;;;;;4.75;2.00;;;;;;;;;;5110741;27;20331;-77
2022/06/13 14:07:53;;;;;;;7.75;2.20;;;;;;;;;;5107532;28;20220;-77
2022/06/13 14:10:23;;;;;;;5.32;1.90;;;;;;;;;;5109998;28;20285;-77
2022/06/13 14:13:06;;;;;;;5.30;2.25;;;;;;;;;;5124463;27;20201;-77
2022/06/13 14:15:34;;;;;;;6.47;2.17;;;;;;;;;;5110966;27;20637;-77
2022/06/13 14:18:03;;;;;;;3.97;2.08;;;;;;;;;;5112475;27;20289;-77
2022/06/13 14:20:32;;;;;;;4.10;2.25;;;;;;;;;;5102570;27;20227;-77
2022/06/13 14:23:00;;;;;;;6.93;2.20;;;;;;;;;;5117800;27;20682;-77
2022/06/13 14:25:38;;;;;;;5.53;2.30;;;;;;;;;;5104345;27;20285;-77
2022/06/13 14:28:07;;;;;;;3.65;2.13;;;;;;;;;;5101311;27;20572;-78
2022/06/13 14:36:08;;;;;;;4.55;2.38;;;;;;;;;;5101438;28;20201;-77
2022/06/13 14:38:43;;;;;;;5.25;2.22;;;;;;;;;;5109615;27;20274;-77
2022/06/13 14:41:16;;;;;;;4.57;2.08;;;;;;;;;;5105216;28;20705;-77
2022/06/13 14:43:47;;;;;;;4.75;2.13;;;;;;;;;;5123910;27;20703;-77
2022/06/13 14:46:24;;;;;;;6.00;2.60;;;;;;;;;;5104305;27;20198;-77
2022/06/13 14:48:55;;;;;;;8.18;2.50;;;;;;;;;;5103910;28;20364;-77
2022/06/13 14:51:28;;;;;;;5.18;2.20;;;;;;;;;;5104116;28;20711;-77
2022/06/13 14:53:56;;;;;;;6.18;2.38;;;;;;;;;;5104392;27;20221;-77
2022/06/13 14:56:44;;;;;;;5.30;2.20;;;;;;;;;;5107064;28;20579;-77
2022/06/13 14:59:18;;;;;;;4.40;2.40;;;;;;;;;;5103898;28;20202;-77
2022/06/13 15:01:47;;;;;;;3.63;1.92;;;;;;;;;;5095561;28;20234;-78
2022/06/13 15:04:19;;;;;;;5.20;2.45;;;;;;;;;;5098418;28;20226;-77
2022/06/13 15:06:52;;;;;;;4.57;2.28;;;;;;;;;;5105682;28;20298;-78
2022/06/13 15:09:24;;;;;;;3.58;1.77;;;;;;;;;;5097993;28;20236;-77
2022/06/13 15:11:53;;;;;;;5.30;2.22;;;;;;;;;;5109313;27;20279;-77
2022/06/13 15:14:24;;;;;;;6.22;2.35;;;;;;;;;;5113275;27;20280;-77
2022/06/13 15:16:52;;;;;;;8.90;2.22;;;;;;;;;;5105744;27;20233;-77
2022/06/13 15:19:20;;;;;;;4.53;2.25;;;;;;;;;;5107627;27;20237;-77
2022/06/13 15:21:49;;;;;;;5.22;1.90;;;;;;;;;;5119434;27;20276;-78
2022/06/13 15:24:17;;;;;;;4.80;2.08;;;;;;;;;;5115157;27;20684;-78
2022/06/13 15:26:46;;;;;;;6.25;2.13;;;;;;;;;;5109622;27;20194;-78